Terminal Aerodrome Forecast
Issued by NWS Huntsville, AL

Home | Current Version | Previous Version | Text Only | Print | Product List | Glossary On
Versions: 1 2 3 4 5 6 7 8 9 10 11 12 13 14 15 16 17 18 19 20 21 22 23 24 25 26 27 28 29 30 31 32
000
FTUS44 KHUN 031143 CCA
TAFMSL
TAF COR
KMSL 031143Z 0312/0412 VRB02KT 4SM BR SCT150 SCT200
      TEMPO 0312/0313 1SM BR
     FM031500 VRB02KT P6SM SCT040 BKN070
     FM040300 VRB02KT 4SM BR FEW060=

USA.gov is the U.S. government's official web portal to all federal, state and local government web resources and services.